Jepson Prairie Reserve, California Weather observations

Data are for 10 minute period ending at time listed.
 Day   Time   Solar   Ave.   Ave.  Ave.  Vector  Max.   Baro.   Total    
  of    of     Rad.   Air    Rel.  Wind   Wind   Wind  Press.  Precip.   
Year   Day            Temp.  Hum.  Speed  Dir.   Gust                    
2014   (PST)  Kw/m2    F      %     mph   deg.    mph    mb.     in.     
-------------------------------------------------------------------------
 259   20:10   0.00   68.3    63    6.8   204     9.7   1006.8    0.00 
 259   20:20   0.00   67.3    65    9.1   205    11.5   1006.8    0.00 
 259   20:30   0.00   67.5    64   11.8   199    14.0   1006.8    0.00 
 259   20:40   0.00   67.2    64   11.0   203    14.7   1006.8    0.00 
 259   20:50   0.00   67.1    62   11.4   208    14.6   1006.8    0.00 
 259   21:00   0.00   67.0    61   13.7   210    21.9   1006.8    0.00 
 259   21:10   0.00   67.0    62   18.5   214    22.7   1006.8    0.00 
 259   21:20   0.00   66.8    62   15.1   208    19.0   1006.8    0.00 
 259   21:30   0.00   66.4    63   16.5   210    19.7   1006.8    0.00 
 259   21:40   0.00   65.6    65   15.2   207    18.3   1006.8    0.00 
 259   21:50   0.00   64.7    67   12.7   209    15.4   1007.1    0.00 
 259   22:00   0.00   64.4    68   11.6   215    15.5   1007.1    0.00 
 259   22:10   0.00   64.3    69   11.6   213    16.4   1007.1    0.00 
 259   22:20   0.00   64.1    70   16.5   213    23.2   1007.1    0.00 
 259   22:30   0.00   64.7    69   17.5   214    22.4   1006.8    0.00 
 259   22:40   0.00   64.7    69   15.4   207    19.8   1006.8    0.00 
 259   22:50   0.00   64.3    69   14.4   203    18.2   1007.1    0.00 
 259   23:00   0.00   64.0    70   13.5   210    18.0   1007.1    0.00 
 259   23:10   100.00  99999.0   99999  99999.0   99999   99999.0   99999.0   99999.00 
 259   23:20   100.00  99999.0   99999  99999.0   99999   99999.0   99999.0   99999.00 
 259   23:30   100.00  99999.0   99999  99999.0   99999   99999.0   99999.0   99999.00 
 259   23:40   100.00  99999.0   99999  99999.0   99999   99999.0   99999.0   99999.00 
 259   23:50   100.00  99999.0   99999  99999.0   99999   99999.0   99999.0   99999.00 
 260    0:00   100.00  99999.0   99999  99999.0   99999   99999.0   99999.0   99999.00 
 260    0:10   100.00  99999.0   99999  99999.0   99999   99999.0   99999.0   99999.00 
 260    0:20   100.00  99999.0   99999  99999.0   99999   99999.0   99999.0   99999.00 
 260    0:30   100.00  99999.0   99999  99999.0   99999   99999.0   99999.0   99999.00 
 260    0:40   100.00  99999.0   99999  99999.0   99999   99999.0   99999.0   99999.00 
 260    0:50   100.00  99999.0   99999  99999.0   99999   99999.0   99999.0   99999.00 
 260    1:00   100.00  99999.0   99999  99999.0   99999   99999.0   99999.0   99999.00 
 260    1:10   100.00  99999.0   99999  99999.0   99999   99999.0   99999.0   99999.00 
 260    1:20   100.00  99999.0   99999  99999.0   99999   99999.0   99999.0   99999.00 
 260    1:30   100.00  99999.0   99999  99999.0   99999   99999.0   99999.0   99999.00 
 260    1:40   100.00  99999.0   99999  99999.0   99999   99999.0   99999.0   99999.00 
 260    1:50   100.00  99999.0   99999  99999.0   99999   99999.0   99999.0   99999.00 
 260    2:00   100.00  99999.0   99999  99999.0   99999   99999.0   99999.0   99999.00 
 260    2:10   100.00  99999.0   99999  99999.0   99999   99999.0   99999.0   99999.00 
 260    2:20   0.00   60.7    85   13.5   220    16.4   1006.1    0.00 
 260    2:30   0.00   60.4    86   13.6   218    16.2   1005.8    0.00 
 260    2:40   0.00   60.3    86   12.3   217    15.8   1005.8    0.00 
 260    2:50   0.00   59.8    86   12.8   220    15.6   1005.8    0.00 
 260    3:00   0.00   59.3    86   12.4   221    15.2   1005.8    0.00 
 260    3:10   0.00   59.6    85   14.0   222    17.1   1005.8    0.00 
 260    3:20   0.00   60.5    85   16.2   224    19.2   1005.8    0.00 
 260    3:30   0.00   60.9    84   14.9   223    20.4   1005.8    0.00 
 260    3:40   0.00   60.9    85   17.1   224    21.3   1005.8    0.00 
 260    3:50   0.00   60.8    85   17.1   225    21.6   1005.8    0.00 
 260    4:00   0.00   60.6    86   15.4   222    19.6   1005.8    0.00 
 260    4:10   0.00   60.6    86   18.8   224    22.5   1005.8    0.00 
 260    4:20   0.00   60.6    86   18.5   225    21.9   1005.8    0.00 
 260    4:30   0.00   60.3    87   17.7   224    21.5   1005.8    0.00 
 260    4:40   0.00   60.0    87   19.5   228    23.9   1005.8    0.00 
 260    4:50   0.00   59.9    87   16.1   222    21.3   1005.8    0.00 
 260    5:00   0.00   59.6    87   11.7   216    14.1   1006.1    0.00 
 260    5:10   0.00   59.1    88   10.4   214    12.6   1006.1    0.00 
 260    5:20   0.00   59.2    88   10.6   206    12.9   1006.1    0.00 
 260    5:30   0.00   58.8    89   10.6   215    13.0   1006.1    0.00 
 260    5:40   0.00   58.8    89   10.0   213    12.8   1006.4    0.00 
 260    5:50   0.00   58.8    89   10.5   210    16.1   1006.4    0.00 
 260    6:00   0.01   59.1    89   12.1   210    15.6   1006.4    0.00 
 260    6:10   0.02   59.3    89   13.9   214    16.9   1006.4    0.00 
 260    6:20   0.05   59.3    89   15.6   220    18.9   1006.4    0.00 
 260    6:30   0.07   59.5    88   16.1   222    19.7   1006.4    0.00 
 260    6:40   0.10   60.0    87   16.3   219    20.5   1006.4    0.00 
 260    6:50   0.13   60.6    86   17.5   220    20.9   1006.8    0.00 
 260    7:00   0.16   61.0    85   17.9   222    20.9   1006.8    0.00 
 260    7:10   0.19   61.7    83   18.7   224    23.9   1006.8    0.00 
 260    7:20   0.22   62.5    81   19.1   225    23.3   1006.8    0.00 
 260    7:30   0.25   63.3    78   18.6   224    22.7   1006.8    0.00 
 260    7:40   0.28   64.0    76   20.3   226    24.2   1006.8    0.00 
 260    7:50   0.32   64.7    73   21.1   223    26.2   1007.1    0.00 
 260    8:00   0.35   65.0    72   21.1   221    26.4   1007.1    0.00 
 260    8:10   0.38   66.0    70   20.4   217    25.3   1007.1    0.00 
 260    8:20   0.41   66.8    66   20.3   217    25.1   1007.1    0.00 
 260    8:30   0.44   67.9    63   18.1   219    24.9   1007.1    0.00 
 260    8:40   0.47   68.0    63   16.6   220    21.5   1007.1    0.00 
 260    8:50   0.49   68.4    62   15.2   221    20.6   1007.5    0.00 
 260    9:00   0.52   69.0    61   15.9   220    21.0   1007.5    0.00 
 260    9:10   0.54   69.5    60   14.2   222    19.4   1007.1    0.00 
 260    9:20   0.57   70.5    58   11.9   225    16.9   1007.5    0.00 
 260    9:30   0.59   71.0    56   13.0   225    18.0   1007.5    0.00 
 260    9:40   0.62   71.5    54   14.9   215    19.9   1007.5    0.00 
 260    9:50   0.64   71.7    54   15.0   223    20.1   1007.1    0.00 
 260   10:00   0.66   73.0    53   16.0   228    20.3   1007.1    0.00 
 260   10:10   0.68   74.1    51   13.0   228    19.1   1007.1    0.00 
 260   10:20   0.70   75.6    48   13.9   219    19.2   1007.1    0.00 
 260   10:30   0.71   76.2    46   15.7   217    20.6   1006.8    0.00 
 260   10:40   0.73   76.9    43   14.0   216    18.9   1006.8    0.00 
 260   10:50   0.74   77.5    42   15.7   219    21.3   1006.8    0.00 
 260   11:00   0.75   78.4    40   14.1   216    18.0   1006.4    0.00 
 260   11:10   0.76   79.2    39   12.4   223    16.7   1006.4    0.00 
 260   11:20   0.77   80.1    38   12.3   217    16.1   1006.4    0.00 
 260   11:30   0.78   81.1    36   12.2   226    15.9   1006.1    0.00 
 260   11:40   0.78   81.1    36   14.1   222    19.3   1005.8    0.00 
 260   11:50   0.78   82.5    34   14.6   216    18.4   1005.8    0.00 
 260   12:00   0.79   83.0    34   15.4   221    21.9   1005.8    0.00 
 260   12:10   0.78   83.0    34   14.9   219    19.6   1005.4    0.00 
 260   12:20   0.78   82.6    35   13.4   218    18.1   1005.4    0.00 
 260   12:30   0.78   82.9    35   12.0   217    16.1   1005.4    0.00 
 260   12:40   0.77   83.4    34   11.1   226    16.1   1005.1    0.00 
 260   12:50   0.76   83.9    34   10.4   212    18.3   1005.1    0.00 
 260   13:00   0.75   84.1    33   11.7   214    17.8   1005.1    0.00 
 260   13:10   0.74   84.4    32   13.9   224    20.2   1004.7    0.00 
 260   13:20   0.73   84.5    32   15.6   230    21.1   1004.7    0.00 
 260   13:30   0.72   84.5    32   15.9   232    21.4   1004.7    0.00 
 260   13:40   0.70   85.1    32   15.2   230    19.6   1004.7    0.00 
 260   13:50   0.69   85.2    32   16.0   233    21.9   1004.4    0.00 
 260   14:00   0.67   85.0    33   19.5   233    25.6   1004.4    0.00 
 260   14:10   0.65   84.4    34   22.3   232    28.5   1004.4    0.00 
 260   14:20   0.63   84.4    34   20.9   232    27.9   1004.4    0.00 
 260   14:30   0.60   84.4    33   21.1   234    27.4   1004.1    0.00 
 260   14:40   0.58   83.9    35   23.6   236    30.7   1003.7    0.00 
 260   14:50   0.56   83.8    36   26.2   231    32.4   1003.7    0.00 
 260   15:00   0.54   83.4    36   26.8   227    37.8   1003.7    0.00 
 260   15:10   0.51   82.9    36   26.2   225    33.1   1003.4    0.00 
 260   15:20   0.49   82.5    36   26.2   226    34.3   1003.4    0.00 
 260   15:30   0.46   81.9    35   27.7   227    34.1   1003.4    0.00 
 260   15:40   0.43   81.8    33   26.6   228    33.5   1003.4    0.00 
 260   15:50   0.40   81.1    32   25.4   227    32.5   1003.4    0.00 
 260   16:00   0.37   80.7    31   26.2   222    32.1   1003.7    0.00 
 260   16:10   0.34   80.4    32   26.1   216    31.9   1003.4    0.00 
 260   16:20   0.30   80.2    32   24.3   222    29.1   1003.4    0.00 
 260   16:30   0.27   80.0    33   23.1   219    27.6   1003.4    0.00 
 260   16:40   0.24   79.8    35   22.8   221    28.0   1003.4    0.00 
 260   16:50   0.21   79.2    35   25.8   214    30.0   1003.4    0.00 
 260   17:00   0.18   78.3    37   26.7   218    30.5   1003.4    0.00 
 260   17:10   0.15   77.4    40   26.1   217    31.0   1003.4    0.00 
 260   17:20   0.12   76.6    43   25.3   221    29.7   1003.4    0.00 
 260   17:30   0.09   75.0    48   28.8   229    35.5   1003.4    0.00 
 260   17:40   0.07   73.1    52   30.0   223    35.8   1003.4    0.00 
 260   17:50   0.04   72.5    53   28.3   221    34.1   1003.7    0.00 
 260   18:00   0.02   71.9    54   24.3   218    29.8   1004.1    0.00 
 260   18:10   0.01   71.2    55   20.4   214    27.0   1004.1    0.00 
 260   18:20   0.00   70.7    57   17.2   216    21.7   1004.4    0.00 
 260   18:30   0.00   70.4    57   16.9   220    20.9   1004.4    0.00 
 260   18:40   0.00   70.2    59   17.8   229    22.9   1004.4    0.00 
 260   18:50   0.00   70.0    59   19.7   235    24.8   1004.4    0.00 
 260   19:00   0.00   69.5    62   19.6   234    23.8   1004.7    0.00 
 260   19:10   0.00   68.9    64   18.6   235    23.2   1004.7    0.00 
 260   19:20   0.00   68.5    67   16.3   237    23.1   1004.7    0.00 
 260   19:30   0.00   68.2    68    8.5   243    15.9   1005.1    0.00 
 260   19:40   0.00   68.1    68    5.7   224    10.3   1005.1    0.00 
 260   19:50   0.00   67.9    70   11.4   233    24.2   1005.1    0.00 
 260   20:00   0.00   67.7    73   21.9   233    30.2   1004.7    0.00 

Return to Jepson Prairie Reserve graphs page.


Western Regional Climate Center,wrcc@dri.edu